Terminal Aerodrome Forecast
Issued by NWS Topeka, KS

Home | Current Version | Previous Version | Text Only | Print | Product List | Glossary Off
Versions: 1 2 3 4 5 6 7 8 9 10 11 12 13 14 15 16 17 18 19 20 21 22 23 24

000
FTUS43 KTOP 031138
TAFTOP
TAF
KTOP 031138Z 0312/0412 06004KT 4SM -SHRA BR SCT008 OVC012
      TEMPO 0312/0313 3SM -SHRA BR BKN008
     FM031500 04005KT P6SM SCT015 BKN025
     FM031900 03005KT P6SM SCT050
     FM040200 04004KT P6SM SCT100=

USA.gov is the U.S. government's official web portal to all federal, state and local government web resources and services.